sensor_id;sensor_type;location;lat;lon;timestamp;pressure;altitude;pressure_sealevel;temperature;humidity
70843;BME280;58469;52.312;16.970;2024-01-30T00:00:00;102414.66;;;-0.39;90.89
70843;BME280;58469;52.312;16.970;2024-01-30T00:03:00;102421.56;;;-0.40;90.86
70843;BME280;58469;52.312;16.970;2024-01-30T00:06:03;102416.69;;;-0.44;90.85
70843;BME280;58469;52.312;16.970;2024-01-30T00:09:03;102422.75;;;-0.45;90.18
70843;BME280;58469;52.312;16.970;2024-01-30T00:12:06;102417.84;;;-0.48;90.21
70843;BME280;58469;52.312;16.970;2024-01-30T00:15:06;102417.00;;;-0.49;90.32
70843;BME280;58469;52.312;16.970;2024-01-30T00:18:09;102420.56;;;-0.51;89.95
70843;BME280;58469;52.312;16.970;2024-01-30T00:21:10;102429.94;;;-0.50;90.57
70843;BME280;58469;52.312;16.970;2024-01-30T00:24:10;102424.81;;;-0.50;91.73
70843;BME280;58469;52.312;16.970;2024-01-30T00:27:10;102420.50;;;-0.50;91.49
70843;BME280;58469;52.312;16.970;2024-01-30T00:30:11;102420.66;;;-0.53;90.54
70843;BME280;58469;52.312;16.970;2024-01-30T00:33:12;102424.38;;;-0.57;90.38
70843;BME280;58469;52.312;16.970;2024-01-30T00:36:12;102415.84;;;-0.57;90.54
70843;BME280;58469;52.312;16.970;2024-01-30T00:39:12;102414.16;;;-0.58;91.41
70843;BME280;58469;52.312;16.970;2024-01-30T00:42:15;102409.78;;;-0.56;92.58
70843;BME280;58469;52.312;16.970;2024-01-30T00:48:35;102413.41;;;-0.46;91.91
70843;BME280;58469;52.312;16.970;2024-01-30T00:51:35;102414.03;;;-0.43;90.72
70843;BME280;58469;52.312;16.970;2024-01-30T00:54:36;102410.81;;;-0.46;90.11
70843;BME280;58469;52.312;16.970;2024-01-30T00:57:36;102407.03;;;-0.53;89.87
70843;BME280;58469;52.312;16.970;2024-01-30T01:00:37;102408.25;;;-0.59;90.91
70843;BME280;58469;52.312;16.970;2024-01-30T01:03:37;102412.94;;;-0.65;91.25
70843;BME280;58469;52.312;16.970;2024-01-30T01:06:37;102404.50;;;-0.67;92.12
70843;BME280;58469;52.312;16.970;2024-01-30T01:09:38;102407.97;;;-0.68;91.75
70843;BME280;58469;52.312;16.970;2024-01-30T01:12:39;102402.03;;;-0.69;91.64
70843;BME280;58469;52.312;16.970;2024-01-30T01:15:39;102412.00;;;-0.64;91.80
70843;BME280;58469;52.312;16.970;2024-01-30T01:18:40;102399.69;;;-0.59;91.56
70843;BME280;58469;52.312;16.970;2024-01-30T01:21:40;102402.06;;;-0.56;90.75
70843;BME280;58469;52.312;16.970;2024-01-30T01:24:40;102406.19;;;-0.54;90.58
70843;BME280;58469;52.312;16.970;2024-01-30T01:27:41;102398.41;;;-0.52;90.16
70843;BME280;58469;52.312;16.970;2024-01-30T01:30:42;102399.13;;;-0.50;90.85
70843;BME280;58469;52.312;16.970;2024-01-30T01:33:43;102406.72;;;-0.49;90.10
70843;BME280;58469;52.312;16.970;2024-01-30T01:36:43;102403.34;;;-0.49;89.98
70843;BME280;58469;52.312;16.970;2024-01-30T01:39:43;102402.53;;;-0.50;90.14
70843;BME280;58469;52.312;16.970;2024-01-30T01:42:44;102399.22;;;-0.52;90.39
70843;BME280;58469;52.312;16.970;2024-01-30T01:45:45;102394.38;;;-0.56;90.15
70843;BME280;58469;52.312;16.970;2024-01-30T01:48:46;102401.16;;;-0.55;89.96
70843;BME280;58469;52.312;16.970;2024-01-30T01:51:48;102393.56;;;-0.57;89.77
70843;BME280;58469;52.312;16.970;2024-01-30T01:54:48;102395.19;;;-0.56;89.94
70843;BME280;58469;52.312;16.970;2024-01-30T01:57:48;102392.53;;;-0.54;90.28
70843;BME280;58469;52.312;16.970;2024-01-30T02:03:58;102398.28;;;-0.51;90.09
70843;BME280;58469;52.312;16.970;2024-01-30T02:06:58;102389.59;;;-0.48;89.52
70843;BME280;58469;52.312;16.970;2024-01-30T02:09:58;102398.94;;;-0.47;90.23
70843;BME280;58469;52.312;16.970;2024-01-30T02:12:59;102391.84;;;-0.44;90.58
70843;BME280;58469;52.312;16.970;2024-01-30T02:15:59;102393.41;;;-0.41;90.78
70843;BME280;58469;52.312;16.970;2024-01-30T02:19:00;102385.59;;;-0.40;90.44
70843;BME280;58469;52.312;16.970;2024-01-30T02:22:00;102394.22;;;-0.41;89.40
70843;BME280;58469;52.312;16.970;2024-01-30T02:25:00;102395.97;;;-0.41;89.26
70843;BME280;58469;52.312;16.970;2024-01-30T02:28:01;102394.22;;;-0.41;89.52
70843;BME280;58469;52.312;16.970;2024-01-30T02:31:01;102391.66;;;-0.41;89.27
70843;BME280;58469;52.312;16.970;2024-01-30T02:34:01;102392.69;;;-0.43;89.29
70843;BME280;58469;52.312;16.970;2024-01-30T02:37:02;102388.13;;;-0.52;89.15
70843;BME280;58469;52.312;16.970;2024-01-30T02:40:03;102395.72;;;-0.51;89.62
70843;BME280;58469;52.312;16.970;2024-01-30T02:43:04;102390.91;;;-0.55;89.25
70843;BME280;58469;52.312;16.970;2024-01-30T02:46:05;102392.94;;;-0.60;89.34
70843;BME280;58469;52.312;16.970;2024-01-30T02:49:05;102396.72;;;-0.66;89.49
70843;BME280;58469;52.312;16.970;2024-01-30T02:52:06;102384.19;;;-0.70;89.06
70843;BME280;58469;52.312;16.970;2024-01-30T02:55:06;102387.75;;;-0.73;89.55
70843;BME280;58469;52.312;16.970;2024-01-30T02:58:07;102379.72;;;-0.81;89.73
70843;BME280;58469;52.312;16.970;2024-01-30T03:01:07;102387.41;;;-0.81;89.78
70843;BME280;58469;52.312;16.970;2024-01-30T03:04:07;102386.69;;;-0.83;89.72
70843;BME280;58469;52.312;16.970;2024-01-30T03:07:08;102384.75;;;-0.79;90.03
70843;BME280;58469;52.312;16.970;2024-01-30T03:10:09;102378.59;;;-0.77;90.02
70843;BME280;58469;52.312;16.970;2024-01-30T03:13:09;102384.53;;;-0.76;89.55
70843;BME280;58469;52.312;16.970;2024-01-30T03:16:10;102375.22;;;-0.77;89.38
70843;BME280;58469;52.312;16.970;2024-01-30T03:19:10;102375.28;;;-0.79;89.20
70843;BME280;58469;52.312;16.970;2024-01-30T03:22:10;102378.59;;;-0.77;90.08
70843;BME280;58469;52.312;16.970;2024-01-30T03:25:11;102374.38;;;-0.78;89.64
70843;BME280;58469;52.312;16.970;2024-01-30T03:28:11;102378.88;;;-0.81;89.52
70843;BME280;58469;52.312;16.970;2024-01-30T03:31:14;102374.47;;;-0.79;89.40
70843;BME280;58469;52.312;16.970;2024-01-30T03:34:14;102370.97;;;-0.78;89.45
70843;BME280;58469;52.312;16.970;2024-01-30T03:37:15;102373.53;;;-0.78;89.45
70843;BME280;58469;52.312;16.970;2024-01-30T03:40:15;102369.16;;;-0.76;89.79
70843;BME280;58469;52.312;16.970;2024-01-30T03:43:15;102369.88;;;-0.74;89.27
70843;BME280;58469;52.312;16.970;2024-01-30T03:46:16;102365.75;;;-0.77;89.31
70843;BME280;58469;52.312;16.970;2024-01-30T03:49:16;102369.16;;;-0.76;89.40
70843;BME280;58469;52.312;16.970;2024-01-30T03:52:17;102365.47;;;-0.72;89.39
70843;BME280;58469;52.312;16.970;2024-01-30T03:55:17;102371.34;;;-0.70;90.24
70843;BME280;58469;52.312;16.970;2024-01-30T03:58:17;102379.38;;;-0.62;89.38
70843;BME280;58469;52.312;16.970;2024-01-30T04:01:18;102376.41;;;-0.56;89.08
70843;BME280;58469;52.312;16.970;2024-01-30T04:04:19;102371.09;;;-0.53;89.31
70843;BME280;58469;52.312;16.970;2024-01-30T04:07:19;102370.25;;;-0.54;88.93
70843;BME280;58469;52.312;16.970;2024-01-30T04:10:20;102375.38;;;-0.54;89.05
70843;BME280;58469;52.312;16.970;2024-01-30T04:13:20;102382.88;;;-0.51;89.13
70843;BME280;58469;52.312;16.970;2024-01-30T04:16:21;102382.00;;;-0.50;88.82
70843;BME280;58469;52.312;16.970;2024-01-30T04:19:24;102376.03;;;-0.50;88.72
70843;BME280;58469;52.312;16.970;2024-01-30T04:22:25;102372.72;;;-0.52;88.28
70843;BME280;58469;52.312;16.970;2024-01-30T04:25:25;102372.00;;;-0.54;88.57
70843;BME280;58469;52.312;16.970;2024-01-30T04:28:26;102383.19;;;-0.55;88.51
70843;BME280;58469;52.312;16.970;2024-01-30T04:31:26;102386.56;;;-0.55;88.32
70843;BME280;58469;52.312;16.970;2024-01-30T04:34:26;102385.94;;;-0.58;89.45
70843;BME280;58469;52.312;16.970;2024-01-30T04:37:26;102381.72;;;-0.59;88.32
70843;BME280;58469;52.312;16.970;2024-01-30T04:40:27;102385.13;;;-0.59;88.63
70843;BME280;58469;52.312;16.970;2024-01-30T04:43:28;102394.66;;;-0.61;88.71
70843;BME280;58469;52.312;16.970;2024-01-30T04:46:28;102382.03;;;-0.64;88.44
70843;BME280;58469;52.312;16.970;2024-01-30T04:49:28;102382.94;;;-0.65;88.62
70843;BME280;58469;52.312;16.970;2024-01-30T04:52:29;102385.72;;;-0.68;89.39
70843;BME280;58469;52.312;16.970;2024-01-30T04:55:29;102374.91;;;-0.73;89.13
70843;BME280;58469;52.312;16.970;2024-01-30T04:58:30;102379.56;;;-0.65;88.90
70843;BME280;58469;52.312;16.970;2024-01-30T05:01:30;102378.84;;;-0.67;88.64
70843;BME280;58469;52.312;16.970;2024-01-30T05:04:30;102377.63;;;-0.62;89.27
70843;BME280;58469;52.312;16.970;2024-01-30T05:07:31;102379.16;;;-0.59;88.98
70843;BME280;58469;52.312;16.970;2024-01-30T05:10:31;102382.56;;;-0.59;88.83
70843;BME280;58469;52.312;16.970;2024-01-30T05:13:32;102369.72;;;-0.59;88.83
70843;BME280;58469;52.312;16.970;2024-01-30T05:16:32;102370.53;;;-0.58;89.31
70843;BME280;58469;52.312;16.970;2024-01-30T05:19:33;102371.16;;;-0.55;88.78
70843;BME280;58469;52.312;16.970;2024-01-30T05:22:33;102372.94;;;-0.55;89.04
70843;BME280;58469;52.312;16.970;2024-01-30T05:25:33;102379.06;;;-0.58;89.14
70843;BME280;58469;52.312;16.970;2024-01-30T05:28:34;102378.88;;;-0.55;89.05
70843;BME280;58469;52.312;16.970;2024-01-30T05:31:34;102382.06;;;-0.51;89.26
70843;BME280;58469;52.312;16.970;2024-01-30T05:34:35;102379.84;;;-0.43;88.96
70843;BME280;58469;52.312;16.970;2024-01-30T05:37:35;102387.34;;;-0.40;88.68
70843;BME280;58469;52.312;16.970;2024-01-30T05:40:36;102371.31;;;-0.44;88.65
70843;BME280;58469;52.312;16.970;2024-01-30T05:43:36;102375.84;;;-0.35;88.89
70843;BME280;58469;52.312;16.970;2024-01-30T05:46:36;102374.63;;;-0.29;88.70
70843;BME280;58469;52.312;16.970;2024-01-30T05:49:37;102374.97;;;-0.21;88.49
70843;BME280;58469;52.312;16.970;2024-01-30T05:52:37;102366.03;;;-0.16;88.59
70843;BME280;58469;52.312;16.970;2024-01-30T05:55:37;102373.44;;;-0.11;88.58
70843;BME280;58469;52.312;16.970;2024-01-30T05:58:38;102374.88;;;-0.07;88.03
70843;BME280;58469;52.312;16.970;2024-01-30T06:01:38;102366.44;;;-0.09;88.00
70843;BME280;58469;52.312;16.970;2024-01-30T06:04:45;102372.22;;;-0.06;88.10
70843;BME280;58469;52.312;16.970;2024-01-30T06:07:45;102358.75;;;-0.09;88.35
70843;BME280;58469;52.312;16.970;2024-01-30T06:10:45;102376.31;;;-0.03;87.91
70843;BME280;58469;52.312;16.970;2024-01-30T06:13:47;102381.44;;;-0.03;87.98
70843;BME280;58469;52.312;16.970;2024-01-30T06:16:49;102384.94;;;-0.04;87.97
70843;BME280;58469;52.312;16.970;2024-01-30T06:19:50;102377.25;;;-0.04;87.87
70843;BME280;58469;52.312;16.970;2024-01-30T06:22:50;102381.28;;;0.00;87.38
70843;BME280;58469;52.312;16.970;2024-01-30T06:25:50;102384.63;;;0.00;87.34
70843;BME280;58469;52.312;16.970;2024-01-30T06:28:51;102379.59;;;-0.01;87.40
70843;BME280;58469;52.312;16.970;2024-01-30T06:31:51;102378.88;;;-0.03;87.07
70843;BME280;58469;52.312;16.970;2024-01-30T06:34:52;102374.56;;;-0.03;87.06
70843;BME280;58469;52.312;16.970;2024-01-30T06:37:52;102368.81;;;-0.06;86.98
70843;BME280;58469;52.312;16.970;2024-01-30T06:40:53;102378.97;;;-0.05;87.55
70843;BME280;58469;52.312;16.970;2024-01-30T06:43:53;102382.16;;;-0.01;87.31
70843;BME280;58469;52.312;16.970;2024-01-30T06:46:53;102381.78;;;0.05;87.34
70843;BME280;58469;52.312;16.970;2024-01-30T06:49:54;102386.59;;;0.10;87.02
70843;BME280;58469;52.312;16.970;2024-01-30T06:52:54;102381.47;;;0.10;86.93
70843;BME280;58469;52.312;16.970;2024-01-30T06:55:55;102378.91;;;0.10;86.46
70843;BME280;58469;52.312;16.970;2024-01-30T06:58:55;102384.16;;;0.08;86.49
70843;BME280;58469;52.312;16.970;2024-01-30T07:01:55;102390.72;;;-0.01;86.80
70843;BME280;58469;52.312;16.970;2024-01-30T07:04:56;102372.00;;;-0.03;86.69
70843;BME280;58469;52.312;16.970;2024-01-30T07:07:56;102374.88;;;0.06;86.91
70843;BME280;58469;52.312;16.970;2024-01-30T07:10:56;102376.13;;;0.13;86.70
70843;BME280;58469;52.312;16.970;2024-01-30T07:13:57;102377.69;;;0.15;86.78
70843;BME280;58469;52.312;16.970;2024-01-30T07:16:57;102380.44;;;0.25;86.94
70843;BME280;58469;52.312;16.970;2024-01-30T07:19:57;102379.94;;;0.32;86.64
70843;BME280;58469;52.312;16.970;2024-01-30T07:22:58;102383.63;;;0.41;86.60
70843;BME280;58469;52.312;16.970;2024-01-30T07:25:59;102387.31;;;0.49;86.16
70843;BME280;58469;52.312;16.970;2024-01-30T07:28:59;102391.84;;;0.58;86.15
70843;BME280;58469;52.312;16.970;2024-01-30T07:32:00;102388.34;;;0.72;86.12
70843;BME280;58469;52.312;16.970;2024-01-30T07:35:00;102376.47;;;0.82;86.11
70843;BME280;58469;52.312;16.970;2024-01-30T07:38:00;102385.47;;;1.00;86.35
70843;BME280;58469;52.312;16.970;2024-01-30T07:41:01;102387.91;;;1.14;85.48
70843;BME280;58469;52.312;16.970;2024-01-30T07:44:02;102391.03;;;1.30;85.74
70843;BME280;58469;52.312;16.970;2024-01-30T07:47:03;102387.47;;;1.44;86.05
70843;BME280;58469;52.312;16.970;2024-01-30T07:50:03;102377.56;;;1.61;85.46
70843;BME280;58469;52.312;16.970;2024-01-30T07:53:04;102389.47;;;1.75;84.67
70843;BME280;58469;52.312;16.970;2024-01-30T07:56:05;102378.34;;;1.85;84.59
70843;BME280;58469;52.312;16.970;2024-01-30T07:59:09;102383.31;;;1.99;84.54
70843;BME280;58469;52.312;16.970;2024-01-30T08:02:11;102385.94;;;2.10;84.11
70843;BME280;58469;52.312;16.970;2024-01-30T08:05:12;102383.16;;;2.24;84.21
70843;BME280;58469;52.312;16.970;2024-01-30T08:08:14;102381.63;;;2.33;84.36
70843;BME280;58469;52.312;16.970;2024-01-30T08:11:15;102379.41;;;2.39;83.79
70843;BME280;58469;52.312;16.970;2024-01-30T08:14:15;102385.38;;;2.51;84.06
70843;BME280;58469;52.312;16.970;2024-01-30T08:17:15;102379.28;;;2.63;83.17
70843;BME280;58469;52.312;16.970;2024-01-30T08:20:16;102370.59;;;2.75;84.02
70843;BME280;58469;52.312;16.970;2024-01-30T08:23:16;102374.88;;;2.97;83.48
70843;BME280;58469;52.312;16.970;2024-01-30T08:26:17;102368.03;;;3.18;83.33
70843;BME280;58469;52.312;16.970;2024-01-30T08:29:17;102373.81;;;3.42;82.89
70843;BME280;58469;52.312;16.970;2024-01-30T08:32:18;102374.69;;;3.63;82.73
70843;BME280;58469;52.312;16.970;2024-01-30T08:35:18;102370.59;;;3.81;81.48
70843;BME280;58469;52.312;16.970;2024-01-30T08:38:18;102367.16;;;4.01;82.57
70843;BME280;58469;52.312;16.970;2024-01-30T08:41:19;102375.19;;;4.19;82.25
70843;BME280;58469;52.312;16.970;2024-01-30T08:44:19;102361.06;;;4.32;80.89
70843;BME280;58469;52.312;16.970;2024-01-30T08:47:19;102372.72;;;4.47;81.04
70843;BME280;58469;52.312;16.970;2024-01-30T08:50:20;102368.28;;;4.59;80.65
70843;BME280;58469;52.312;16.970;2024-01-30T08:53:20;102380.41;;;4.68;79.35
70843;BME280;58469;52.312;16.970;2024-01-30T08:56:21;102378.44;;;4.81;80.62
70843;BME280;58469;52.312;16.970;2024-01-30T08:59:21;102368.78;;;4.93;79.67
70843;BME280;58469;52.312;16.970;2024-01-30T09:02:21;102372.47;;;5.09;80.94
70843;BME280;58469;52.312;16.970;2024-01-30T09:05:22;102368.97;;;5.10;76.37
70843;BME280;58469;52.312;16.970;2024-01-30T09:08:22;102369.78;;;5.20;78.90
70843;BME280;58469;52.312;16.970;2024-01-30T09:11:23;102372.50;;;5.28;78.45
70843;BME280;58469;52.312;16.970;2024-01-30T09:14:23;102366.81;;;5.34;78.43
70843;BME280;58469;52.312;16.970;2024-01-30T09:17:23;102371.84;;;5.45;78.55
70843;BME280;58469;52.312;16.970;2024-01-30T09:20:24;102353.56;;;5.56;79.59
70843;BME280;58469;52.312;16.970;2024-01-30T09:23:24;102359.56;;;5.66;77.76
70843;BME280;58469;52.312;16.970;2024-01-30T09:26:25;102359.97;;;5.71;76.48
70843;BME280;58469;52.312;16.970;2024-01-30T09:29:25;102357.13;;;5.84;76.68
70843;BME280;58469;52.312;16.970;2024-01-30T09:32:26;102353.69;;;5.93;76.82
70843;BME280;58469;52.312;16.970;2024-01-30T09:35:26;102344.78;;;5.95;75.52
70843;BME280;58469;52.312;16.970;2024-01-30T09:38:27;102356.41;;;6.01;74.84
70843;BME280;58469;52.312;16.970;2024-01-30T09:41:27;102346.94;;;6.10;74.02
70843;BME280;58469;52.312;16.970;2024-01-30T09:44:29;102340.25;;;6.17;74.79
70843;BME280;58469;52.312;16.970;2024-01-30T09:47:41;102342.66;;;6.28;75.51
70843;BME280;58469;52.312;16.970;2024-01-30T09:50:42;102334.97;;;6.36;73.69
70843;BME280;58469;52.312;16.970;2024-01-30T09:53:43;102340.13;;;6.45;73.74
70843;BME280;58469;52.312;16.970;2024-01-30T09:56:47;102327.56;;;6.41;69.31
70843;BME280;58469;52.312;16.970;2024-01-30T09:59:48;102331.72;;;6.34;68.13
70843;BME280;58469;52.312;16.970;2024-01-30T10:02:48;102327.06;;;6.28;68.93
70843;BME280;58469;52.312;16.970;2024-01-30T10:05:51;102322.41;;;6.31;68.39
70843;BME280;58469;52.312;16.970;2024-01-30T10:08:54;102326.16;;;6.46;71.64
70843;BME280;58469;52.312;16.970;2024-01-30T10:11:54;102330.66;;;6.54;69.79
70843;BME280;58469;52.312;16.970;2024-01-30T10:14:56;102328.06;;;6.54;69.40
70843;BME280;58469;52.312;16.970;2024-01-30T10:17:57;102320.94;;;6.56;68.04
70843;BME280;58469;52.312;16.970;2024-01-30T10:20:59;102320.94;;;6.56;67.93
70843;BME280;58469;52.312;16.970;2024-01-30T10:23:59;102310.69;;;6.54;68.70
70843;BME280;58469;52.312;16.970;2024-01-30T10:27:00;102309.34;;;6.50;66.48
70843;BME280;58469;52.312;16.970;2024-01-30T10:30:01;102309.19;;;6.52;67.22
70843;BME280;58469;52.312;16.970;2024-01-30T10:33:01;102304.16;;;6.50;64.49
70843;BME280;58469;52.312;16.970;2024-01-30T10:36:04;102305.81;;;6.51;66.31
70843;BME280;58469;52.312;16.970;2024-01-30T10:39:06;102297.41;;;6.57;67.96
70843;BME280;58469;52.312;16.970;2024-01-30T10:42:11;102295.25;;;6.53;63.60
70843;BME280;58469;52.312;16.970;2024-01-30T10:45:13;102290.44;;;6.58;65.55
70843;BME280;58469;52.312;16.970;2024-01-30T10:48:14;102297.88;;;6.70;67.56
70843;BME280;58469;52.312;16.970;2024-01-30T10:51:16;102290.72;;;6.82;66.18
70843;BME280;58469;52.312;16.970;2024-01-30T10:54:19;102285.22;;;6.85;63.75
70843;BME280;58469;52.312;16.970;2024-01-30T10:57:22;102291.31;;;6.93;65.59
70843;BME280;58469;52.312;16.970;2024-01-30T11:00:23;102280.25;;;6.91;63.37
70843;BME280;58469;52.312;16.970;2024-01-30T11:03:24;102278.53;;;7.00;64.51
70843;BME280;58469;52.312;16.970;2024-01-30T11:06:25;102283.94;;;7.06;66.03
70843;BME280;58469;52.312;16.970;2024-01-30T11:09:29;102278.75;;;7.06;64.13
70843;BME280;58469;52.312;16.970;2024-01-30T11:12:31;102279.34;;;7.18;65.58
70843;BME280;58469;52.312;16.970;2024-01-30T11:15:37;102274.53;;;7.23;64.71
70843;BME280;58469;52.312;16.970;2024-01-30T11:18:38;102267.69;;;7.22;61.47
70843;BME280;58469;52.312;16.970;2024-01-30T11:21:42;102268.19;;;7.26;62.41
70843;BME280;58469;52.312;16.970;2024-01-30T11:24:42;102267.28;;;7.35;63.28
70843;BME280;58469;52.312;16.970;2024-01-30T11:27:44;102262.66;;;7.46;62.94
70843;BME280;58469;52.312;16.970;2024-01-30T11:30:44;102255.22;;;7.51;62.19
70843;BME280;58469;52.312;16.970;2024-01-30T11:33:52;102249.16;;;7.68;64.19
70843;BME280;58469;52.312;16.970;2024-01-30T11:36:56;102247.13;;;7.80;63.26
70843;BME280;58469;52.312;16.970;2024-01-30T11:39:59;102244.53;;;7.80;61.31
70843;BME280;58469;52.312;16.970;2024-01-30T11:43:02;102242.72;;;7.80;62.94
70843;BME280;58469;52.312;16.970;2024-01-30T11:46:06;102241.53;;;7.75;59.61
70843;BME280;58469;52.312;16.970;2024-01-30T11:49:07;102231.28;;;7.73;62.20
70843;BME280;58469;52.312;16.970;2024-01-30T11:52:07;102234.59;;;7.83;62.15
70843;BME280;58469;52.312;16.970;2024-01-30T11:55:08;102234.31;;;7.94;63.91
70843;BME280;58469;52.312;16.970;2024-01-30T11:58:09;102232.22;;;7.98;62.80
70843;BME280;58469;52.312;16.970;2024-01-30T12:01:11;102221.50;;;8.01;62.87
70843;BME280;58469;52.312;16.970;2024-01-30T12:04:11;102215.53;;;8.08;63.12
70843;BME280;58469;52.312;16.970;2024-01-30T12:07:11;102214.53;;;8.09;61.81
70843;BME280;58469;52.312;16.970;2024-01-30T12:10:13;102211.47;;;8.14;61.90
70843;BME280;58469;52.312;16.970;2024-01-30T12:13:14;102209.72;;;8.22;63.26
70843;BME280;58469;52.312;16.970;2024-01-30T12:16:14;102213.19;;;8.31;63.49
70843;BME280;58469;52.312;16.970;2024-01-30T12:19:24;102199.84;;;8.42;63.60
70843;BME280;58469;52.312;16.970;2024-01-30T12:22:25;102197.25;;;8.42;62.86
70843;BME280;58469;52.312;16.970;2024-01-30T12:25:25;102196.28;;;8.43;63.42
70843;BME280;58469;52.312;16.970;2024-01-30T12:28:26;102192.88;;;8.51;63.28
70843;BME280;58469;52.312;16.970;2024-01-30T12:31:27;102187.31;;;8.46;62.27
70843;BME280;58469;52.312;16.970;2024-01-30T12:34:28;102187.31;;;8.46;62.47
70843;BME280;58469;52.312;16.970;2024-01-30T12:37:30;102188.97;;;8.55;63.30
70843;BME280;58469;52.312;16.970;2024-01-30T12:40:33;102182.59;;;8.49;60.29
70843;BME280;58469;52.312;16.970;2024-01-30T12:43:33;102174.97;;;8.40;60.32
70843;BME280;58469;52.312;16.970;2024-01-30T12:46:35;102181.63;;;8.42;62.63
70843;BME280;58469;52.312;16.970;2024-01-30T12:49:35;102176.28;;;8.52;62.63
70843;BME280;58469;52.312;16.970;2024-01-30T12:52:36;102170.41;;;8.58;62.32
70843;BME280;58469;52.312;16.970;2024-01-30T12:55:36;102167.50;;;8.69;62.56
70843;BME280;58469;52.312;16.970;2024-01-30T12:58:37;102161.63;;;8.75;61.61
70843;BME280;58469;52.312;16.970;2024-01-30T13:01:37;102163.75;;;8.79;62.15
70843;BME280;58469;52.312;16.970;2024-01-30T13:04:38;102163.75;;;8.79;60.69
70843;BME280;58469;52.312;16.970;2024-01-30T13:07:38;102162.28;;;8.85;62.26
70843;BME280;58469;52.312;16.970;2024-01-30T13:10:39;102160.31;;;8.87;62.25
70843;BME280;58469;52.312;16.970;2024-01-30T13:13:39;102160.00;;;8.82;61.68
70843;BME280;58469;52.312;16.970;2024-01-30T13:16:39;102158.03;;;8.92;62.81
70843;BME280;58469;52.312;16.970;2024-01-30T13:19:40;102161.47;;;8.92;62.48
70843;BME280;58469;52.312;16.970;2024-01-30T13:22:40;102163.09;;;8.93;63.21
70843;BME280;58469;52.312;16.970;2024-01-30T13:25:41;102156.75;;;8.96;62.93
70843;BME280;58469;52.312;16.970;2024-01-30T13:28:41;102149.72;;;8.88;61.22
70843;BME280;58469;52.312;16.970;2024-01-30T13:31:41;102152.50;;;8.87;62.09
70843;BME280;58469;52.312;16.970;2024-01-30T13:34:44;102139.16;;;8.82;63.08
70843;BME280;58469;52.312;16.970;2024-01-30T13:37:44;102146.97;;;8.74;59.31
70843;BME280;58469;52.312;16.970;2024-01-30T13:40:45;102147.78;;;8.66;61.23
70843;BME280;58469;52.312;16.970;2024-01-30T13:43:45;102147.94;;;8.65;62.20
70843;BME280;58469;52.312;16.970;2024-01-30T13:46:45;102148.75;;;8.57;61.58
70843;BME280;58469;52.312;16.970;2024-01-30T13:49:46;102144.84;;;8.61;63.11
70843;BME280;58469;52.312;16.970;2024-01-30T13:52:46;102149.91;;;8.55;62.21
70843;BME280;58469;52.312;16.970;2024-01-30T13:55:47;102147.44;;;8.45;60.31
70843;BME280;58469;52.312;16.970;2024-01-30T13:58:48;102146.81;;;8.43;62.55
70843;BME280;58469;52.312;16.970;2024-01-30T14:01:50;102145.81;;;8.36;62.02
70843;BME280;58469;52.312;16.970;2024-01-30T14:04:51;102144.66;;;8.30;64.01
70843;BME280;58469;52.312;16.970;2024-01-30T14:07:51;102139.59;;;8.29;63.69
70843;BME280;58469;52.312;16.970;2024-01-30T14:10:52;102144.47;;;8.24;62.89
70843;BME280;58469;52.312;16.970;2024-01-30T14:13:52;102136.59;;;8.16;63.25
70843;BME280;58469;52.312;16.970;2024-01-30T14:16:53;102141.31;;;8.04;64.61
70843;BME280;58469;52.312;16.970;2024-01-30T14:19:53;102144.72;;;7.97;64.41
70843;BME280;58469;52.312;16.970;2024-01-30T14:22:54;102135.06;;;7.89;64.97
70843;BME280;58469;52.312;16.970;2024-01-30T14:25:55;102137.50;;;7.83;65.10
70843;BME280;58469;52.312;16.970;2024-01-30T14:28:56;102138.44;;;7.74;65.12
70843;BME280;58469;52.312;16.970;2024-01-30T14:31:56;102133.06;;;7.67;65.56
70843;BME280;58469;52.312;16.970;2024-01-30T14:34:57;102136.75;;;7.57;66.30
70843;BME280;58469;52.312;16.970;2024-01-30T14:37:57;102128.91;;;7.49;66.09
70843;BME280;58469;52.312;16.970;2024-01-30T14:40:58;102130.81;;;7.39;66.45
70843;BME280;58469;52.312;16.970;2024-01-30T14:43:58;102129.44;;;7.27;66.13
70843;BME280;58469;52.312;16.970;2024-01-30T14:46:59;102123.00;;;7.13;66.85
70843;BME280;58469;52.312;16.970;2024-01-30T14:50:00;102117.41;;;7.00;66.88
70843;BME280;58469;52.312;16.970;2024-01-30T14:53:00;102123.81;;;6.88;67.28
70843;BME280;58469;52.312;16.970;2024-01-30T14:56:01;102124.34;;;6.74;67.31
70843;BME280;58469;52.312;16.970;2024-01-30T14:59:02;102136.25;;;6.59;68.06
70843;BME280;58469;52.312;16.970;2024-01-30T15:02:03;102144.81;;;6.51;68.68
70843;BME280;58469;52.312;16.970;2024-01-30T15:05:04;102141.00;;;6.46;68.49
70843;BME280;58469;52.312;16.970;2024-01-30T15:08:04;102137.66;;;6.36;68.81
70843;BME280;58469;52.312;16.970;2024-01-30T15:11:05;102139.91;;;6.31;68.79
70843;BME280;58469;52.312;16.970;2024-01-30T15:14:05;102137.81;;;6.17;69.42
70843;BME280;58469;52.312;16.970;2024-01-30T15:17:05;102151.50;;;6.09;69.61
70843;BME280;58469;52.312;16.970;2024-01-30T15:20:06;102148.00;;;6.01;69.83
70843;BME280;58469;52.312;16.970;2024-01-30T15:23:07;102147.38;;;5.89;70.16
70843;BME280;58469;52.312;16.970;2024-01-30T15:26:08;102151.63;;;5.80;70.20
70843;BME280;58469;52.312;16.970;2024-01-30T15:29:08;102139.66;;;5.70;70.50
70843;BME280;58469;52.312;16.970;2024-01-30T15:32:08;102150.34;;;5.57;70.65
70843;BME280;58469;52.312;16.970;2024-01-30T15:35:09;102153.28;;;5.45;71.31
70843;BME280;58469;52.312;16.970;2024-01-30T15:38:09;102151.81;;;5.33;71.53
70843;BME280;58469;52.312;16.970;2024-01-30T15:41:10;102150.34;;;5.21;72.18
70843;BME280;58469;52.312;16.970;2024-01-30T15:44:11;102154.84;;;5.09;72.30